Time;durP1;ratioP1;P1;durP2;ratioP2;P2;SDS_P1;SDS_P2;PMS_P1;PMS_P2;Temp;Humidity;BMP_temperature;BMP_pressure;BME280_temperature;BME280_humidity;BME280_pressure;Samples;Min_cycle;Max_cycle;Signal;HPM_P1;HPM_P2
2024/01/30 00:00:00;;;;;;;34.47;24.40;;;;;;;;;;5067792;28;20070;-75
2024/01/30 00:02:26;;;;;;;34.80;25.13;;;;;;;;;;5051246;28;20044;-76
2024/01/30 00:04:53;;;;;;;36.53;25.80;;;;;;;;;;5053072;28;20039;-75
2024/01/30 00:07:19;;;;;;;35.25;24.95;;;;;;;;;;5050575;28;20040;-76
2024/01/30 00:09:48;;;;;;;33.53;25.02;;;;;;;;;;5033752;28;20044;-77
2024/01/30 00:12:14;;;;;;;29.95;23.83;;;;;;;;;;5069010;28;20048;-76
2024/01/30 00:14:43;;;;;;;32.58;24.08;;;;;;;;;;5069461;28;20068;-75
2024/01/30 00:17:09;;;;;;;33.70;23.92;;;;;;;;;;5069241;28;20090;-76
2024/01/30 00:19:35;;;;;;;38.53;24.38;;;;;;;;;;5080849;28;20048;-77
2024/01/30 00:22:01;;;;;;;37.58;25.90;;;;;;;;;;5069730;28;20101;-76
2024/01/30 00:24:27;;;;;;;33.30;24.33;;;;;;;;;;5053320;28;20043;-76
2024/01/30 00:26:53;;;;;;;31.35;23.80;;;;;;;;;;5033383;28;20055;-78
2024/01/30 00:29:20;;;;;;;36.33;23.98;;;;;;;;;;5038309;28;20071;-77
2024/01/30 00:31:46;;;;;;;32.60;25.00;;;;;;;;;;5035408;28;20503;-77
2024/01/30 00:34:12;;;;;;;36.67;25.50;;;;;;;;;;5052612;28;20040;-76
2024/01/30 00:36:38;;;;;;;38.75;25.85;;;;;;;;;;5048270;28;20119;-75
2024/01/30 00:39:07;;;;;;;36.88;26.30;;;;;;;;;;5044334;28;20124;-80
2024/01/30 00:41:33;;;;;;;36.33;26.30;;;;;;;;;;5053113;28;20092;-79
2024/01/30 00:43:59;;;;;;;35.90;25.65;;;;;;;;;;5052923;28;20039;-80
2024/01/30 00:46:25;;;;;;;36.83;24.40;;;;;;;;;;5054384;28;20173;-80
2024/01/30 00:48:51;;;;;;;34.25;25.42;;;;;;;;;;5068365;28;20036;-80
2024/01/30 00:51:17;;;;;;;37.75;25.48;;;;;;;;;;5052992;28;20078;-80
2024/01/30 00:53:43;;;;;;;37.78;25.52;;;;;;;;;;5053014;28;20059;-80
2024/01/30 00:56:09;;;;;;;42.35;26.23;;;;;;;;;;5033702;28;20063;-79
2024/01/30 00:58:35;;;;;;;39.45;25.98;;;;;;;;;;5035023;28;20448;-81
2024/01/30 01:01:02;;;;;;;40.80;26.42;;;;;;;;;;5071340;28;20414;-79
2024/01/30 01:03:28;;;;;;;40.83;27.27;;;;;;;;;;5065710;28;20043;-81
2024/01/30 01:05:54;;;;;;;39.20;26.95;;;;;;;;;;5068880;28;20498;-80
2024/01/30 01:08:20;;;;;;;38.15;26.88;;;;;;;;;;5063477;28;20208;-81
2024/01/30 01:10:46;;;;;;;38.58;26.58;;;;;;;;;;5035961;28;20036;-79
2024/01/30 01:13:12;;;;;;;46.17;28.10;;;;;;;;;;5050085;28;20056;-80
2024/01/30 01:15:39;;;;;;;45.50;27.60;;;;;;;;;;5066554;28;20043;-80
2024/01/30 01:18:05;;;;;;;35.10;25.77;;;;;;;;;;5052497;28;20112;-80
2024/01/30 01:20:31;;;;;;;38.75;27.15;;;;;;;;;;5052034;28;20047;-80
2024/01/30 01:22:58;;;;;;;40.58;28.65;;;;;;;;;;5036595;28;20036;-80
2024/01/30 01:25:24;;;;;;;37.22;28.17;;;;;;;;;;5069046;28;20136;-80
2024/01/30 01:27:53;;;;;;;40.83;29.17;;;;;;;;;;5083972;28;20028;-79
2024/01/30 01:30:21;;;;;;;44.22;29.17;;;;;;;;;;5066921;28;20491;-80
2024/01/30 01:32:54;;;;;;;42.42;28.48;;;;;;;;;;5065431;28;20048;-80
2024/01/30 01:35:27;;;;;;;46.47;30.47;;;;;;;;;;5050373;28;20047;-80
2024/01/30 01:37:58;;;;;;;41.78;29.33;;;;;;;;;;5049451;28;20136;-79
2024/01/30 01:40:24;;;;;;;43.80;31.42;;;;;;;;;;5046531;28;20040;-78
2024/01/30 01:42:52;;;;;;;41.42;29.10;;;;;;;;;;5066498;28;20067;-81
2024/01/30 01:45:18;;;;;;;50.55;33.92;;;;;;;;;;5068352;28;20040;-80
2024/01/30 01:47:46;;;;;;;53.10;35.35;;;;;;;;;;5065418;28;20051;-80
2024/01/30 01:50:13;;;;;;;60.97;37.10;;;;;;;;;;5050314;28;20044;-83
2024/01/30 01:52:40;;;;;;;61.75;38.10;;;;;;;;;;5069281;28;21700;-84
2024/01/30 01:55:06;;;;;;;60.60;38.00;;;;;;;;;;5050517;28;20112;-83
2024/01/30 01:57:32;;;;;;;54.83;34.72;;;;;;;;;;5070589;28;20503;-84
2024/01/30 01:59:59;;;;;;;55.25;35.65;;;;;;;;;;5049406;28;20044;-83
2024/01/30 02:02:25;;;;;;;47.63;31.02;;;;;;;;;;5065691;28;20123;-81
2024/01/30 02:04:51;;;;;;;41.85;30.33;;;;;;;;;;5053051;28;20495;-81
2024/01/30 02:07:18;;;;;;;48.05;31.67;;;;;;;;;;5035718;28;20036;-83
2024/01/30 02:09:44;;;;;;;46.22;30.45;;;;;;;;;;5068975;28;20465;-83
2024/01/30 02:12:10;;;;;;;42.63;28.85;;;;;;;;;;5036261;28;20039;-81
2024/01/30 02:14:45;;;;;;;51.08;30.77;;;;;;;;;;5052086;28;20068;-83
2024/01/30 02:17:11;;;;;;;43.60;28.60;;;;;;;;;;5054305;28;20055;-78
2024/01/30 02:19:37;;;;;;;48.40;30.17;;;;;;;;;;5034848;28;20551;-83
2024/01/30 02:22:03;;;;;;;41.05;28.20;;;;;;;;;;5082671;28;20039;-80
2024/01/30 02:24:29;;;;;;;39.83;28.98;;;;;;;;;;5073549;28;20135;-83
2024/01/30 02:26:55;;;;;;;45.15;28.52;;;;;;;;;;5061872;28;20044;-79
2024/01/30 02:29:22;;;;;;;39.25;28.27;;;;;;;;;;5060845;28;20075;-79
2024/01/30 02:31:48;;;;;;;41.70;29.88;;;;;;;;;;5059473;28;20048;-84
2024/01/30 02:34:14;;;;;;;44.20;29.58;;;;;;;;;;5074833;28;20118;-84
2024/01/30 02:36:44;;;;;;;44.30;29.98;;;;;;;;;;5073769;28;20074;-81
2024/01/30 02:39:10;;;;;;;43.25;28.80;;;;;;;;;;5037023;28;20479;-83
2024/01/30 02:41:36;;;;;;;40.88;31.00;;;;;;;;;;5068991;28;20036;-83
2024/01/30 02:44:03;;;;;;;47.78;30.83;;;;;;;;;;5082277;28;20039;-81
2024/01/30 02:46:29;;;;;;;45.03;29.85;;;;;;;;;;5063918;28;20048;-84
2024/01/30 02:48:55;;;;;;;43.22;31.23;;;;;;;;;;5053147;28;20033;-83
2024/01/30 02:51:21;;;;;;;46.00;29.25;;;;;;;;;;5077206;28;20078;-83
2024/01/30 02:53:47;;;;;;;41.53;30.33;;;;;;;;;;5072115;28;20068;-83
2024/01/30 02:56:13;;;;;;;45.53;30.52;;;;;;;;;;5072307;28;20488;-80
2024/01/30 02:58:40;;;;;;;41.58;28.48;;;;;;;;;;5075383;28;20139;-77
2024/01/30 03:01:06;;;;;;;44.90;30.67;;;;;;;;;;5074502;28;20039;-76
2024/01/30 03:03:35;;;;;;;36.58;28.25;;;;;;;;;;5054639;28;20043;-75
2024/01/30 03:06:02;;;;;;;41.67;28.23;;;;;;;;;;5050499;28;20040;-74
2024/01/30 03:08:28;;;;;;;37.75;26.95;;;;;;;;;;5074819;28;20062;-74
2024/01/30 03:10:54;;;;;;;37.08;26.38;;;;;;;;;;5054611;28;20501;-75
2024/01/30 03:13:20;;;;;;;38.58;25.85;;;;;;;;;;5051989;28;20043;-75
2024/01/30 03:15:46;;;;;;;34.30;26.38;;;;;;;;;;5039328;28;20055;-75
2024/01/30 03:18:12;;;;;;;36.05;24.55;;;;;;;;;;5051542;28;20039;-75
2024/01/30 03:20:39;;;;;;;38.22;24.75;;;;;;;;;;5037019;28;20126;-75
2024/01/30 03:23:05;;;;;;;39.97;27.25;;;;;;;;;;5068641;28;20040;-75
2024/01/30 03:25:31;;;;;;;43.58;26.73;;;;;;;;;;5069053;28;20055;-76
2024/01/30 03:27:57;;;;;;;36.13;25.70;;;;;;;;;;5068863;28;20134;-74
2024/01/30 03:30:23;;;;;;;42.42;25.92;;;;;;;;;;5054080;28;20044;-77
2024/01/30 03:32:50;;;;;;;35.58;25.90;;;;;;;;;;5052016;28;20067;-75
2024/01/30 03:35:16;;;;;;;40.30;26.02;;;;;;;;;;5054341;28;20044;-75
2024/01/30 03:37:44;;;;;;;42.38;26.15;;;;;;;;;;5070583;28;20060;-74
2024/01/30 03:40:10;;;;;;;36.88;25.35;;;;;;;;;;5070002;28;20126;-77
2024/01/30 03:42:36;;;;;;;34.78;24.83;;;;;;;;;;5069761;28;20402;-74
2024/01/30 03:45:02;;;;;;;37.78;25.88;;;;;;;;;;5052874;28;20037;-75
2024/01/30 03:47:28;;;;;;;36.42;24.25;;;;;;;;;;5055011;28;20036;-75
2024/01/30 03:49:54;;;;;;;37.35;25.80;;;;;;;;;;5048650;28;20051;-77
2024/01/30 03:52:20;;;;;;;39.28;27.20;;;;;;;;;;5068677;28;20118;-75
2024/01/30 03:54:46;;;;;;;42.30;27.83;;;;;;;;;;5068056;28;20040;-76
2024/01/30 03:57:12;;;;;;;36.45;25.00;;;;;;;;;;5054247;28;20500;-75
2024/01/30 03:59:38;;;;;;;39.10;26.35;;;;;;;;;;5053724;28;20040;-76
2024/01/30 04:02:04;;;;;;;38.67;25.35;;;;;;;;;;5064617;28;20031;-76
2024/01/30 04:04:31;;;;;;;36.78;25.58;;;;;;;;;;5075635;28;20043;-75
2024/01/30 04:06:57;;;;;;;38.70;25.17;;;;;;;;;;5072611;28;20092;-76
2024/01/30 04:09:23;;;;;;;36.20;24.40;;;;;;;;;;5056630;28;20044;-76
2024/01/30 04:11:49;;;;;;;36.90;26.27;;;;;;;;;;5051750;28;20032;-77
2024/01/30 04:14:15;;;;;;;42.38;26.13;;;;;;;;;;5068510;28;20035;-76
2024/01/30 04:16:41;;;;;;;38.83;26.33;;;;;;;;;;5050210;28;20068;-75
2024/01/30 04:19:07;;;;;;;36.63;26.45;;;;;;;;;;5075323;28;20044;-76
2024/01/30 04:21:33;;;;;;;35.35;26.13;;;;;;;;;;5050905;28;20555;-75
2024/01/30 04:23:59;;;;;;;38.90;27.08;;;;;;;;;;5071054;28;20423;-76
2024/01/30 04:26:25;;;;;;;35.13;27.10;;;;;;;;;;5054912;28;20495;-76
2024/01/30 04:28:51;;;;;;;37.35;28.55;;;;;;;;;;5066370;28;20036;-75
2024/01/30 04:31:17;;;;;;;35.63;26.85;;;;;;;;;;5049024;28;20047;-75
2024/01/30 04:33:44;;;;;;;43.88;27.60;;;;;;;;;;5047056;28;21418;-76
2024/01/30 04:36:10;;;;;;;38.72;25.20;;;;;;;;;;5072348;28;20039;-76
2024/01/30 04:38:36;;;;;;;37.83;26.27;;;;;;;;;;5053597;28;20060;-76
2024/01/30 04:41:02;;;;;;;37.35;25.00;;;;;;;;;;5068453;28;20075;-76
2024/01/30 04:43:28;;;;;;;32.33;25.80;;;;;;;;;;5051949;28;20039;-76
2024/01/30 04:45:54;;;;;;;36.15;24.48;;;;;;;;;;5036469;28;20047;-77
2024/01/30 04:48:20;;;;;;;36.47;25.00;;;;;;;;;;5051908;28;20035;-76
2024/01/30 04:50:46;;;;;;;35.63;24.95;;;;;;;;;;5069030;28;20039;-76
2024/01/30 04:53:12;;;;;;;36.28;24.95;;;;;;;;;;5052228;28;20040;-76
2024/01/30 04:55:38;;;;;;;31.27;23.48;;;;;;;;;;5065520;28;20111;-76
2024/01/30 04:58:04;;;;;;;33.70;23.38;;;;;;;;;;5066348;28;20039;-76
2024/01/30 05:00:30;;;;;;;32.28;24.13;;;;;;;;;;5067501;28;20032;-77
2024/01/30 05:02:57;;;;;;;31.25;21.60;;;;;;;;;;5032889;28;20044;-77
2024/01/30 05:05:23;;;;;;;30.95;23.17;;;;;;;;;;5049204;28;20078;-77
2024/01/30 05:07:49;;;;;;;34.42;23.08;;;;;;;;;;5033310;28;20122;-77
2024/01/30 05:10:15;;;;;;;35.05;22.50;;;;;;;;;;5067623;28;20514;-77
2024/01/30 05:12:41;;;;;;;35.30;23.90;;;;;;;;;;5049617;28;20039;-77
2024/01/30 05:15:07;;;;;;;32.33;23.00;;;;;;;;;;5068470;28;20032;-78
2024/01/30 05:17:33;;;;;;;31.40;24.52;;;;;;;;;;5067908;28;20043;-78
2024/01/30 05:19:59;;;;;;;30.60;23.40;;;;;;;;;;5050420;28;20044;-81
2024/01/30 05:22:25;;;;;;;36.28;23.90;;;;;;;;;;5066324;28;20169;-82
2024/01/30 05:24:51;;;;;;;30.15;23.95;;;;;;;;;;5042882;28;20067;-79
2024/01/30 05:27:17;;;;;;;28.98;23.02;;;;;;;;;;5065727;28;20099;-82
2024/01/30 05:29:43;;;;;;;32.47;23.13;;;;;;;;;;5050599;28;20036;-81
2024/01/30 05:32:10;;;;;;;31.80;23.35;;;;;;;;;;5045327;28;20123;-80
2024/01/30 05:34:36;;;;;;;34.35;22.70;;;;;;;;;;5037984;28;20051;-81
2024/01/30 05:37:02;;;;;;;31.40;22.63;;;;;;;;;;5046912;28;20059;-81
2024/01/30 05:39:29;;;;;;;27.58;20.88;;;;;;;;;;5049796;28;20176;-82
2024/01/30 05:41:55;;;;;;;29.95;20.67;;;;;;;;;;5048798;28;20051;-81
2024/01/30 05:44:21;;;;;;;28.95;21.60;;;;;;;;;;5067866;28;20486;-82
2024/01/30 05:46:47;;;;;;;30.05;22.77;;;;;;;;;;5069502;28;20395;-82
2024/01/30 05:49:13;;;;;;;32.58;22.08;;;;;;;;;;5033410;28;20044;-78
2024/01/30 05:51:40;;;;;;;30.80;21.33;;;;;;;;;;5035366;28;20035;-81
2024/01/30 05:54:06;;;;;;;34.08;21.95;;;;;;;;;;5073996;28;20043;-81
2024/01/30 05:56:32;;;;;;;27.83;21.30;;;;;;;;;;5060073;28;20585;-82
2024/01/30 05:58:58;;;;;;;32.75;21.67;;;;;;;;;;5059211;28;20514;-78
2024/01/30 06:01:24;;;;;;;28.02;20.77;;;;;;;;;;5073532;28;20440;-81
2024/01/30 06:03:50;;;;;;;29.08;20.23;;;;;;;;;;5067550;28;20138;-78
2024/01/30 06:06:16;;;;;;;31.75;20.40;;;;;;;;;;5071193;28;20047;-79
2024/01/30 06:08:42;;;;;;;26.25;18.70;;;;;;;;;;5058958;28;20410;-81
2024/01/30 06:11:11;;;;;;;31.80;20.13;;;;;;;;;;5056089;28;20347;-81
2024/01/30 06:13:37;;;;;;;25.23;19.35;;;;;;;;;;5072479;28;20040;-81
2024/01/30 06:16:03;;;;;;;24.08;17.75;;;;;;;;;;5053276;28;20050;-81
2024/01/30 06:18:31;;;;;;;28.65;17.75;;;;;;;;;;5053599;28;20036;-80
2024/01/30 06:20:57;;;;;;;25.35;18.95;;;;;;;;;;5073373;28;20400;-81
2024/01/30 06:23:23;;;;;;;25.35;18.15;;;;;;;;;;5056273;28;20043;-81
2024/01/30 06:25:49;;;;;;;25.38;15.98;;;;;;;;;;5088725;28;20148;-81
2024/01/30 06:28:15;;;;;;;24.75;17.00;;;;;;;;;;5052377;28;20113;-80
2024/01/30 06:30:41;;;;;;;24.25;16.35;;;;;;;;;;5055872;28;20040;-75
2024/01/30 06:33:08;;;;;;;22.60;17.05;;;;;;;;;;5040067;28;20127;-77
2024/01/30 06:35:36;;;;;;;26.92;18.15;;;;;;;;;;5060927;28;20392;-75
2024/01/30 06:38:02;;;;;;;25.08;17.58;;;;;;;;;;5042777;28;20048;-75
2024/01/30 06:40:28;;;;;;;22.17;16.52;;;;;;;;;;5056269;28;20063;-76
2024/01/30 06:42:54;;;;;;;22.42;17.90;;;;;;;;;;5038506;28;20039;-74
2024/01/30 06:45:20;;;;;;;23.88;18.27;;;;;;;;;;5070206;28;20044;-75
2024/01/30 06:47:46;;;;;;;24.58;17.23;;;;;;;;;;5071930;28;20134;-78
2024/01/30 06:50:12;;;;;;;26.75;18.52;;;;;;;;;;5070511;28;20044;-75
2024/01/30 06:52:39;;;;;;;24.80;17.17;;;;;;;;;;5077193;28;20154;-75
2024/01/30 06:55:05;;;;;;;24.58;17.45;;;;;;;;;;5060384;28;20105;-76
2024/01/30 06:57:31;;;;;;;27.80;17.80;;;;;;;;;;5072604;28;20086;-76
2024/01/30 06:59:57;;;;;;;23.15;17.02;;;;;;;;;;5040243;28;20048;-75
2024/01/30 07:02:23;;;;;;;26.85;16.98;;;;;;;;;;5036027;28;20926;-80
2024/01/30 07:04:49;;;;;;;23.27;16.98;;;;;;;;;;5053843;28;20108;-75
2024/01/30 07:07:15;;;;;;;24.70;17.65;;;;;;;;;;5058100;28;20032;-76
2024/01/30 07:09:42;;;;;;;22.40;16.38;;;;;;;;;;5077377;28;20040;-75
2024/01/30 07:12:08;;;;;;;25.02;15.52;;;;;;;;;;5058053;28;20507;-76
2024/01/30 07:14:35;;;;;;;25.48;17.13;;;;;;;;;;5067872;28;20124;-78
2024/01/30 07:17:01;;;;;;;24.20;16.25;;;;;;;;;;5057494;28;20027;-76
2024/01/30 07:19:27;;;;;;;24.60;17.85;;;;;;;;;;5051662;28;20048;-77
2024/01/30 07:21:53;;;;;;;25.88;17.10;;;;;;;;;;5078897;28;20107;-76
2024/01/30 07:24:19;;;;;;;27.52;17.30;;;;;;;;;;5072342;28;20036;-76
2024/01/30 07:26:45;;;;;;;23.35;17.30;;;;;;;;;;5071468;28;20036;-76
2024/01/30 07:29:12;;;;;;;23.55;17.45;;;;;;;;;;5072186;28;20040;-76
2024/01/30 07:31:38;;;;;;;24.25;17.30;;;;;;;;;;5050890;28;20036;-76
2024/01/30 07:34:04;;;;;;;26.00;17.15;;;;;;;;;;5039150;28;20175;-76
2024/01/30 07:36:31;;;;;;;22.95;17.67;;;;;;;;;;5054605;28;20039;-77
2024/01/30 07:38:57;;;;;;;22.10;16.98;;;;;;;;;;5053812;28;20048;-76
2024/01/30 07:41:25;;;;;;;25.77;18.40;;;;;;;;;;5054987;28;20051;-78
2024/01/30 07:43:52;;;;;;;27.17;17.55;;;;;;;;;;5048425;28;20044;-78
2024/01/30 07:46:18;;;;;;;27.13;16.88;;;;;;;;;;5049676;28;20507;-77
2024/01/30 07:48:44;;;;;;;21.45;16.50;;;;;;;;;;5051911;28;20105;-78
2024/01/30 07:51:10;;;;;;;22.48;16.23;;;;;;;;;;5058260;28;20028;-77
2024/01/30 07:53:36;;;;;;;24.88;17.38;;;;;;;;;;5073118;28;20081;-77
2024/01/30 07:56:02;;;;;;;28.55;17.90;;;;;;;;;;5057692;28;20032;-77
2024/01/30 07:58:28;;;;;;;27.45;16.83;;;;;;;;;;5057336;28;20028;-77
2024/01/30 08:00:56;;;;;;;23.65;17.58;;;;;;;;;;5093728;28;20558;-77
2024/01/30 08:03:22;;;;;;;27.92;17.60;;;;;;;;;;5074404;28;20046;-79
2024/01/30 08:05:48;;;;;;;24.40;16.55;;;;;;;;;;5052932;28;20028;-78
2024/01/30 08:08:15;;;;;;;23.45;17.17;;;;;;;;;;5034924;28;20034;-77
2024/01/30 08:10:41;;;;;;;22.40;16.67;;;;;;;;;;5067300;28;20501;-76
2024/01/30 08:13:08;;;;;;;23.38;17.92;;;;;;;;;;5040049;28;20491;-78
2024/01/30 08:15:34;;;;;;;24.42;17.95;;;;;;;;;;5052426;28;20061;-79
2024/01/30 08:18:00;;;;;;;26.98;17.65;;;;;;;;;;5075753;28;20043;-77
2024/01/30 08:20:26;;;;;;;24.92;17.65;;;;;;;;;;5054079;28;20134;-78
2024/01/30 08:22:53;;;;;;;20.05;15.85;;;;;;;;;;5034832;28;20051;-77
2024/01/30 08:25:19;;;;;;;22.92;16.75;;;;;;;;;;5072507;28;20554;-77
2024/01/30 08:27:45;;;;;;;23.48;16.40;;;;;;;;;;5042364;28;20087;-76
2024/01/30 08:30:11;;;;;;;26.95;17.13;;;;;;;;;;5062442;28;20059;-76
2024/01/30 08:32:37;;;;;;;24.88;15.98;;;;;;;;;;5038645;28;20040;-77
2024/01/30 08:35:04;;;;;;;23.42;17.55;;;;;;;;;;5055287;28;20048;-77
2024/01/30 08:37:30;;;;;;;25.73;17.65;;;;;;;;;;5071508;28;20044;-76
2024/01/30 08:39:56;;;;;;;25.48;16.05;;;;;;;;;;5076776;28;20066;-77
2024/01/30 08:42:22;;;;;;;23.33;16.73;;;;;;;;;;5058368;28;20545;-78
2024/01/30 08:44:51;;;;;;;24.05;17.30;;;;;;;;;;5084019;28;20089;-77
2024/01/30 08:47:18;;;;;;;21.48;16.50;;;;;;;;;;5067464;28;20134;-79
2024/01/30 08:49:44;;;;;;;22.38;15.63;;;;;;;;;;5072684;28;20043;-78
2024/01/30 08:52:11;;;;;;;24.48;16.08;;;;;;;;;;5054542;28;20446;-77
2024/01/30 08:54:37;;;;;;;21.50;16.75;;;;;;;;;;5037763;28;20040;-77
2024/01/30 08:57:04;;;;;;;23.13;15.98;;;;;;;;;;5037744;28;20094;-77
2024/01/30 08:59:30;;;;;;;23.50;17.55;;;;;;;;;;5052578;28;20032;-78
2024/01/30 09:01:57;;;;;;;26.08;16.50;;;;;;;;;;5061343;28;20505;-77
2024/01/30 09:04:24;;;;;;;21.25;17.20;;;;;;;;;;5038697;28;20404;-78
2024/01/30 09:06:50;;;;;;;25.83;15.57;;;;;;;;;;5054361;28;20052;-77
2024/01/30 09:09:17;;;;;;;23.30;15.60;;;;;;;;;;5069194;28;20454;-76
2024/01/30 09:11:44;;;;;;;23.67;15.05;;;;;;;;;;5054436;28;20032;-77
2024/01/30 09:14:10;;;;;;;21.95;14.77;;;;;;;;;;5054819;28;20036;-78
2024/01/30 09:16:36;;;;;;;22.67;15.05;;;;;;;;;;5038957;28;20036;-77
2024/01/30 09:19:02;;;;;;;22.60;14.77;;;;;;;;;;5056786;28;20036;-77
2024/01/30 09:21:28;;;;;;;20.38;15.68;;;;;;;;;;5070046;28;20048;-77
2024/01/30 09:24:03;;;;;;;18.70;13.70;;;;;;;;;;5038821;28;20593;-76
2024/01/30 09:26:29;;;;;;;18.13;14.02;;;;;;;;;;5047881;28;20047;-77
2024/01/30 09:28:56;;;;;;;24.58;15.07;;;;;;;;;;5040502;28;20118;-78
2024/01/30 09:31:22;;;;;;;18.20;14.48;;;;;;;;;;5073978;28;20032;-78
2024/01/30 09:33:49;;;;;;;20.77;14.70;;;;;;;;;;5048715;28;20060;-78
2024/01/30 09:36:18;;;;;;;22.75;14.35;;;;;;;;;;5031624;28;20518;-78
2024/01/30 09:38:44;;;;;;;20.98;14.15;;;;;;;;;;5068473;28;20060;-77
2024/01/30 09:41:13;;;;;;;17.85;12.75;;;;;;;;;;5068371;28;20075;-79
2024/01/30 09:43:40;;;;;;;19.67;13.80;;;;;;;;;;5056594;28;20059;-78
2024/01/30 09:46:06;;;;;;;26.15;16.42;;;;;;;;;;5062208;28;20052;-77
2024/01/30 09:48:33;;;;;;;21.80;14.20;;;;;;;;;;5055943;28;20522;-79
2024/01/30 09:50:59;;;;;;;24.33;14.48;;;;;;;;;;5058171;28;20102;-79
2024/01/30 09:53:25;;;;;;;19.92;12.77;;;;;;;;;;5070898;28;20050;-78
2024/01/30 09:55:51;;;;;;;19.30;13.85;;;;;;;;;;5071697;28;20377;-79
2024/01/30 09:58:18;;;;;;;21.63;13.00;;;;;;;;;;5041661;28;20036;-79
2024/01/30 10:00:44;;;;;;;19.73;14.15;;;;;;;;;;5054729;28;20065;-78
2024/01/30 10:03:10;;;;;;;20.60;13.38;;;;;;;;;;5056573;28;20123;-79
2024/01/30 10:05:39;;;;;;;20.52;13.18;;;;;;;;;;5069219;28;20043;-79
2024/01/30 10:08:08;;;;;;;18.55;13.23;;;;;;;;;;5069736;28;20384;-78
2024/01/30 10:10:35;;;;;;;19.83;12.15;;;;;;;;;;5032732;28;20206;-78
2024/01/30 10:13:04;;;;;;;17.95;11.23;;;;;;;;;;5072293;28;20036;-77
2024/01/30 10:15:30;;;;;;;18.45;12.13;;;;;;;;;;5072992;28;20044;-77
2024/01/30 10:17:56;;;;;;;18.92;12.38;;;;;;;;;;5055007;28;20075;-78
2024/01/30 10:20:25;;;;;;;24.40;12.88;;;;;;;;;;5055437;28;20131;-78
2024/01/30 10:22:51;;;;;;;21.35;12.25;;;;;;;;;;5056029;28;20388;-77
2024/01/30 10:25:18;;;;;;;17.15;11.52;;;;;;;;;;5071599;28;20101;-79
2024/01/30 10:27:44;;;;;;;16.80;12.32;;;;;;;;;;5081218;28;20048;-80
2024/01/30 10:30:10;;;;;;;18.23;13.73;;;;;;;;;;5066689;28;20027;-78
2024/01/30 10:32:36;;;;;;;19.95;12.43;;;;;;;;;;5053715;28;20039;-76
2024/01/30 10:35:02;;;;;;;21.42;12.75;;;;;;;;;;5058892;28;20041;-78
2024/01/30 10:37:32;;;;;;;18.02;12.45;;;;;;;;;;5084019;28;20039;-78
2024/01/30 10:40:03;;;;;;;19.42;12.48;;;;;;;;;;5056775;28;20793;-78
2024/01/30 10:42:31;;;;;;;19.65;13.20;;;;;;;;;;5061529;28;20048;-76
2024/01/30 10:45:02;;;;;;;16.70;11.55;;;;;;;;;;5061876;28;20101;-77
2024/01/30 10:47:28;;;;;;;18.02;12.38;;;;;;;;;;5065069;28;20051;-77
2024/01/30 10:49:55;;;;;;;19.67;13.48;;;;;;;;;;5060273;28;20032;-77
2024/01/30 10:52:23;;;;;;;17.77;12.82;;;;;;;;;;5080640;28;20429;-77
2024/01/30 10:54:50;;;;;;;25.15;13.60;;;;;;;;;;5069220;28;20125;-77
2024/01/30 10:57:16;;;;;;;17.45;13.27;;;;;;;;;;5071925;28;20082;-80
2024/01/30 10:59:43;;;;;;;23.05;13.52;;;;;;;;;;5032512;28;20131;-79
2024/01/30 11:02:10;;;;;;;22.27;14.25;;;;;;;;;;5069122;28;20048;-77
2024/01/30 11:04:37;;;;;;;24.08;15.05;;;;;;;;;;5056601;28;20243;-78
2024/01/30 11:07:04;;;;;;;20.63;13.00;;;;;;;;;;5071526;28;20036;-79
2024/01/30 11:09:30;;;;;;;20.38;11.82;;;;;;;;;;5041046;28;20075;-77
2024/01/30 11:12:01;;;;;;;15.35;11.90;;;;;;;;;;5052970;28;20044;-82
2024/01/30 11:14:27;;;;;;;19.60;12.95;;;;;;;;;;5070511;28;21608;-82
2024/01/30 11:16:53;;;;;;;19.83;12.10;;;;;;;;;;5040832;28;20039;-82
2024/01/30 11:19:24;;;;;;;16.63;12.20;;;;;;;;;;5041295;28;20479;-82
2024/01/30 11:21:56;;;;;;;20.75;12.18;;;;;;;;;;5055351;28;20058;-82
2024/01/30 11:24:22;;;;;;;22.05;13.20;;;;;;;;;;5054214;28;20045;-81
2024/01/30 11:26:50;;;;;;;19.55;11.82;;;;;;;;;;5074743;28;20048;-82
2024/01/30 11:29:18;;;;;;;20.58;13.40;;;;;;;;;;5064903;28;20036;-82
2024/01/30 11:32:13;;;;;;;26.85;13.48;;;;;;;;;;5073849;28;20051;-81
2024/01/30 11:34:42;;;;;;;19.58;12.50;;;;;;;;;;5066294;28;20040;-81
2024/01/30 11:37:10;;;;;;;18.63;12.50;;;;;;;;;;5079537;28;20092;-81
2024/01/30 11:39:37;;;;;;;21.83;13.07;;;;;;;;;;5084889;28;20058;-82
2024/01/30 11:42:04;;;;;;;21.73;11.35;;;;;;;;;;5058351;28;20060;-81
2024/01/30 11:44:30;;;;;;;11.02;8.40;;;;;;;;;;5055839;28;20048;-82
2024/01/30 11:46:57;;;;;;;19.55;10.77;;;;;;;;;;5090716;28;20508;-82
2024/01/30 11:49:24;;;;;;;19.75;10.50;;;;;;;;;;5043296;28;20101;-82
2024/01/30 11:51:50;;;;;;;18.27;11.07;;;;;;;;;;5057175;28;20190;-82
2024/01/30 11:54:16;;;;;;;21.35;10.70;;;;;;;;;;5064157;28;20041;-82
2024/01/30 11:56:43;;;;;;;20.95;11.20;;;;;;;;;;5057493;28;20040;-82
2024/01/30 11:59:09;;;;;;;14.52;8.90;;;;;;;;;;5078596;28;20372;-79
2024/01/30 12:01:35;;;;;;;10.32;6.70;;;;;;;;;;5046171;28;20035;-83
2024/01/30 12:04:01;;;;;;;12.13;7.32;;;;;;;;;;5080340;28;20487;-81
2024/01/30 12:06:28;;;;;;;11.05;6.10;;;;;;;;;;5062567;28;20032;-81
2024/01/30 12:08:58;;;;;;;14.45;7.13;;;;;;;;;;5081025;28;20075;-82
2024/01/30 12:11:24;;;;;;;11.25;7.00;;;;;;;;;;5046612;28;20040;-84
2024/01/30 12:13:51;;;;;;;14.50;7.03;;;;;;;;;;5029338;28;20132;-82
2024/01/30 12:16:17;;;;;;;14.48;7.78;;;;;;;;;;5073895;28;20032;-82
2024/01/30 12:18:44;;;;;;;15.98;7.72;;;;;;;;;;5054161;28;20063;-80
2024/01/30 12:21:10;;;;;;;14.45;6.68;;;;;;;;;;5059496;28;20035;-81
2024/01/30 12:23:36;;;;;;;16.70;7.82;;;;;;;;;;5050724;28;20399;-81
2024/01/30 12:26:03;;;;;;;15.10;7.00;;;;;;;;;;5065107;28;20066;-81
2024/01/30 12:28:29;;;;;;;13.68;6.88;;;;;;;;;;5062802;28;20096;-82
2024/01/30 12:31:03;;;;;;;18.88;6.95;;;;;;;;;;5059472;28;20553;-82
2024/01/30 12:33:29;;;;;;;17.35;7.55;;;;;;;;;;5079608;28;20044;-82
2024/01/30 12:35:55;;;;;;;11.63;3.63;;;;;;;;;;5080859;28;20100;-82
2024/01/30 12:38:21;;;;;;;7.72;3.92;;;;;;;;;;5055432;28;20477;-82
2024/01/30 12:40:48;;;;;;;15.18;5.90;;;;;;;;;;5065819;28;20384;-82
2024/01/30 12:43:14;;;;;;;5.05;3.25;;;;;;;;;;5056760;28;20054;-82
2024/01/30 12:45:41;;;;;;;4.15;1.95;;;;;;;;;;5049124;28;20035;-81
2024/01/30 12:48:08;;;;;;;5.68;2.10;;;;;;;;;;5075294;28;20376;-82
2024/01/30 12:50:34;;;;;;;7.88;2.95;;;;;;;;;;5073709;28;20039;-82
2024/01/30 12:53:00;;;;;;;3.75;1.70;;;;;;;;;;5046705;28;20447;-82
2024/01/30 12:55:28;;;;;;;3.30;1.70;;;;;;;;;;5030059;28;20055;-82
2024/01/30 12:57:55;;;;;;;4.45;1.55;;;;;;;;;;5050355;28;20407;-82
2024/01/30 13:00:22;;;;;;;4.65;2.22;;;;;;;;;;5060875;28;20096;-81
2024/01/30 13:02:48;;;;;;;1.20;1.10;;;;;;;;;;5061883;28;20050;-81
2024/01/30 13:05:15;;;;;;;3.83;1.35;;;;;;;;;;5058060;28;20036;-81
2024/01/30 13:07:41;;;;;;;3.13;1.08;;;;;;;;;;5086009;28;20032;-82
2024/01/30 13:10:07;;;;;;;1.23;0.60;;;;;;;;;;5073109;28;20078;-80
2024/01/30 13:12:35;;;;;;;1.75;1.00;;;;;;;;;;5038265;28;20050;-80
2024/01/30 13:15:01;;;;;;;2.15;0.90;;;;;;;;;;5076354;28;20050;-81
2024/01/30 13:17:27;;;;;;;1.92;0.63;;;;;;;;;;5051223;28;20549;-81
2024/01/30 13:19:54;;;;;;;0.90;0.70;;;;;;;;;;5036292;28;20051;-80
2024/01/30 13:22:23;;;;;;;2.95;1.02;;;;;;;;;;5056082;28;20066;-81
2024/01/30 13:24:49;;;;;;;2.28;0.70;;;;;;;;;;5055625;28;20486;-81
2024/01/30 13:27:16;;;;;;;0.95;0.50;;;;;;;;;;5070689;28;20047;-81
2024/01/30 13:29:42;;;;;;;0.77;0.65;;;;;;;;;;5068486;28;20024;-81
2024/01/30 13:32:08;;;;;;;1.58;0.63;;;;;;;;;;5051778;28;20426;-80
2024/01/30 13:34:37;;;;;;;0.80;0.60;;;;;;;;;;5053268;28;20040;-82
2024/01/30 13:37:03;;;;;;;2.83;0.60;;;;;;;;;;5071044;28;20441;-81
2024/01/30 13:39:30;;;;;;;0.70;0.70;;;;;;;;;;5069920;28;20113;-81
2024/01/30 13:41:56;;;;;;;1.83;0.70;;;;;;;;;;5052678;28;20036;-83
2024/01/30 13:44:22;;;;;;;1.17;0.55;;;;;;;;;;5033962;28;20032;-81
2024/01/30 13:46:48;;;;;;;3.08;0.73;;;;;;;;;;5055561;28;20036;-81
2024/01/30 13:49:14;;;;;;;1.63;0.70;;;;;;;;;;5069420;28;20072;-82
2024/01/30 13:51:40;;;;;;;0.70;0.60;;;;;;;;;;5064622;28;20037;-81
2024/01/30 13:54:06;;;;;;;1.73;0.80;;;;;;;;;;5065868;28;20567;-81
2024/01/30 13:56:33;;;;;;;2.05;0.75;;;;;;;;;;5050982;28;20032;-82
2024/01/30 13:59:00;;;;;;;1.60;0.80;;;;;;;;;;5056434;28;20126;-82
2024/01/30 14:01:27;;;;;;;2.55;0.93;;;;;;;;;;5064752;28;20044;-81
2024/01/30 14:03:53;;;;;;;2.30;0.80;;;;;;;;;;5072580;28;20043;-80
2024/01/30 14:06:22;;;;;;;4.22;0.82;;;;;;;;;;5055065;28;20036;-81
2024/01/30 14:08:48;;;;;;;2.17;0.82;;;;;;;;;;5054703;28;20093;-80
2024/01/30 14:11:14;;;;;;;0.80;0.65;;;;;;;;;;5053452;28;20048;-80
2024/01/30 14:13:40;;;;;;;2.55;1.00;;;;;;;;;;5068487;28;20366;-80
2024/01/30 14:16:06;;;;;;;3.90;1.00;;;;;;;;;;5074878;28;20509;-80